sensor_id;sensor_type;location;lat;lon;timestamp;P1;durP1;ratioP1;P2;durP2;ratioP2
9737;SDS011;4908;47.446;13.900;2023-06-26T00:01:06;5.87;;;5.47;;
9737;SDS011;4908;47.446;13.900;2023-06-26T00:03:33;6.17;;;5.50;;
9737;SDS011;4908;47.446;13.900;2023-06-26T00:05:59;4.77;;;4.47;;
9737;SDS011;4908;47.446;13.900;2023-06-26T00:08:26;5.73;;;5.23;;
9737;SDS011;4908;47.446;13.900;2023-06-26T00:10:53;5.97;;;5.47;;
9737;SDS011;4908;47.446;13.900;2023-06-26T00:13:20;6.00;;;5.60;;
9737;SDS011;4908;47.446;13.900;2023-06-26T00:15:49;5.90;;;5.47;;
9737;SDS011;4908;47.446;13.900;2023-06-26T00:18:16;5.83;;;5.43;;
9737;SDS011;4908;47.446;13.900;2023-06-26T00:20:43;5.60;;;5.20;;
9737;SDS011;4908;47.446;13.900;2023-06-26T00:23:10;5.83;;;5.43;;
9737;SDS011;4908;47.446;13.900;2023-06-26T00:25:38;5.53;;;5.13;;
9737;SDS011;4908;47.446;13.900;2023-06-26T00:28:04;5.63;;;5.23;;
9737;SDS011;4908;47.446;13.900;2023-06-26T00:30:31;5.40;;;5.00;;
9737;SDS011;4908;47.446;13.900;2023-06-26T00:32:59;6.17;;;5.57;;
9737;SDS011;4908;47.446;13.900;2023-06-26T00:35:27;5.90;;;5.40;;
9737;SDS011;4908;47.446;13.900;2023-06-26T00:37:53;5.63;;;5.23;;
9737;SDS011;4908;47.446;13.900;2023-06-26T00:40:20;5.53;;;5.03;;
9737;SDS011;4908;47.446;13.900;2023-06-26T00:42:47;6.60;;;6.07;;
9737;SDS011;4908;47.446;13.900;2023-06-26T00:45:14;5.27;;;4.93;;
9737;SDS011;4908;47.446;13.900;2023-06-26T00:47:40;5.20;;;4.80;;
9737;SDS011;4908;47.446;13.900;2023-06-26T00:50:09;6.40;;;5.80;;
9737;SDS011;4908;47.446;13.900;2023-06-26T00:52:36;5.57;;;5.17;;
9737;SDS011;4908;47.446;13.900;2023-06-26T00:55:03;5.80;;;5.30;;
9737;SDS011;4908;47.446;13.900;2023-06-26T00:57:31;7.63;;;5.90;;
9737;SDS011;4908;47.446;13.900;2023-06-26T00:59:58;5.70;;;5.30;;
9737;SDS011;4908;47.446;13.900;2023-06-26T01:02:25;6.73;;;6.13;;
9737;SDS011;4908;47.446;13.900;2023-06-26T01:04:58;5.57;;;5.07;;
9737;SDS011;4908;47.446;13.900;2023-06-26T01:07:29;5.87;;;5.47;;
9737;SDS011;4908;47.446;13.900;2023-06-26T01:09:57;5.70;;;5.30;;
9737;SDS011;4908;47.446;13.900;2023-06-26T01:12:25;5.60;;;5.20;;
9737;SDS011;4908;47.446;13.900;2023-06-26T01:14:52;6.13;;;5.63;;
9737;SDS011;4908;47.446;13.900;2023-06-26T01:17:18;6.20;;;5.80;;
9737;SDS011;4908;47.446;13.900;2023-06-26T01:19:46;5.90;;;5.50;;
9737;SDS011;4908;47.446;13.900;2023-06-26T01:22:29;5.67;;;5.27;;
9737;SDS011;4908;47.446;13.900;2023-06-26T01:25:11;5.97;;;5.47;;
9737;SDS011;4908;47.446;13.900;2023-06-26T01:27:44;6.20;;;5.70;;
9737;SDS011;4908;47.446;13.900;2023-06-26T01:30:13;6.13;;;5.63;;
9737;SDS011;4908;47.446;13.900;2023-06-26T01:32:41;6.07;;;5.60;;
9737;SDS011;4908;47.446;13.900;2023-06-26T01:35:09;6.00;;;5.60;;
9737;SDS011;4908;47.446;13.900;2023-06-26T01:37:37;5.83;;;5.33;;
9737;SDS011;4908;47.446;13.900;2023-06-26T01:40:04;6.90;;;6.13;;
9737;SDS011;4908;47.446;13.900;2023-06-26T01:42:32;5.50;;;5.10;;
9737;SDS011;4908;47.446;13.900;2023-06-26T01:45:00;6.60;;;6.00;;
9737;SDS011;4908;47.446;13.900;2023-06-26T01:47:32;6.30;;;5.70;;
9737;SDS011;4908;47.446;13.900;2023-06-26T01:50:05;6.20;;;5.70;;
9737;SDS011;4908;47.446;13.900;2023-06-26T01:52:37;5.83;;;5.33;;
9737;SDS011;4908;47.446;13.900;2023-06-26T01:55:10;6.43;;;5.93;;
9737;SDS011;4908;47.446;13.900;2023-06-26T01:57:50;5.77;;;5.27;;
9737;SDS011;4908;47.446;13.900;2023-06-26T02:00:21;6.80;;;6.10;;
9737;SDS011;4908;47.446;13.900;2023-06-26T02:02:51;5.40;;;5.00;;
9737;SDS011;4908;47.446;13.900;2023-06-26T02:05:18;6.93;;;6.13;;
9737;SDS011;4908;47.446;13.900;2023-06-26T02:07:45;5.97;;;5.50;;
9737;SDS011;4908;47.446;13.900;2023-06-26T02:10:11;5.80;;;5.40;;
9737;SDS011;4908;47.446;13.900;2023-06-26T02:12:38;6.00;;;5.60;;
9737;SDS011;4908;47.446;13.900;2023-06-26T02:15:06;6.40;;;5.90;;
9737;SDS011;4908;47.446;13.900;2023-06-26T02:17:35;6.00;;;5.60;;
9737;SDS011;4908;47.446;13.900;2023-06-26T02:20:01;7.13;;;5.90;;
9737;SDS011;4908;47.446;13.900;2023-06-26T02:22:28;6.00;;;5.50;;
9737;SDS011;4908;47.446;13.900;2023-06-26T02:24:55;6.17;;;5.70;;
9737;SDS011;4908;47.446;13.900;2023-06-26T02:27:22;5.57;;;5.10;;
9737;SDS011;4908;47.446;13.900;2023-06-26T02:29:49;5.90;;;5.40;;
9737;SDS011;4908;47.446;13.900;2023-06-26T02:32:15;6.50;;;5.73;;
9737;SDS011;4908;47.446;13.900;2023-06-26T02:34:44;6.33;;;5.77;;
9737;SDS011;4908;47.446;13.900;2023-06-26T02:37:10;5.77;;;5.37;;
9737;SDS011;4908;47.446;13.900;2023-06-26T02:39:38;7.03;;;5.70;;
9737;SDS011;4908;47.446;13.900;2023-06-26T02:42:05;5.77;;;5.37;;
9737;SDS011;4908;47.446;13.900;2023-06-26T02:44:31;5.77;;;5.37;;
9737;SDS011;4908;47.446;13.900;2023-06-26T02:46:58;5.10;;;4.80;;
9737;SDS011;4908;47.446;13.900;2023-06-26T02:49:25;5.50;;;5.10;;
9737;SDS011;4908;47.446;13.900;2023-06-26T02:51:53;5.83;;;5.43;;
9737;SDS011;4908;47.446;13.900;2023-06-26T02:54:20;5.77;;;5.27;;
9737;SDS011;4908;47.446;13.900;2023-06-26T02:56:46;6.83;;;6.27;;
9737;SDS011;4908;47.446;13.900;2023-06-26T02:59:13;6.13;;;5.63;;
9737;SDS011;4908;47.446;13.900;2023-06-26T03:01:40;6.97;;;6.47;;
9737;SDS011;4908;47.446;13.900;2023-06-26T03:04:07;6.20;;;5.70;;
9737;SDS011;4908;47.446;13.900;2023-06-26T03:06:34;6.40;;;5.80;;
9737;SDS011;4908;47.446;13.900;2023-06-26T03:09:02;6.20;;;5.70;;
9737;SDS011;4908;47.446;13.900;2023-06-26T03:11:29;6.30;;;5.80;;
9737;SDS011;4908;47.446;13.900;2023-06-26T03:13:55;6.20;;;5.70;;
9737;SDS011;4908;47.446;13.900;2023-06-26T03:16:22;6.47;;;5.97;;
9737;SDS011;4908;47.446;13.900;2023-06-26T03:18:49;6.97;;;6.37;;
9737;SDS011;4908;47.446;13.900;2023-06-26T03:21:16;5.57;;;5.17;;
9737;SDS011;4908;47.446;13.900;2023-06-26T03:23:43;7.40;;;6.13;;
9737;SDS011;4908;47.446;13.900;2023-06-26T03:26:12;5.80;;;5.40;;
9737;SDS011;4908;47.446;13.900;2023-06-26T03:28:39;5.93;;;5.40;;
9737;SDS011;4908;47.446;13.900;2023-06-26T03:31:07;6.87;;;6.27;;
9737;SDS011;4908;47.446;13.900;2023-06-26T03:33:34;5.83;;;5.43;;
9737;SDS011;4908;47.446;13.900;2023-06-26T03:36:00;6.03;;;5.63;;
9737;SDS011;4908;47.446;13.900;2023-06-26T03:38:27;5.63;;;5.23;;
9737;SDS011;4908;47.446;13.900;2023-06-26T03:40:54;5.90;;;5.40;;
9737;SDS011;4908;47.446;13.900;2023-06-26T03:43:22;6.60;;;6.10;;
9737;SDS011;4908;47.446;13.900;2023-06-26T03:45:49;5.93;;;5.27;;
9737;SDS011;4908;47.446;13.900;2023-06-26T03:48:16;6.40;;;5.77;;
9737;SDS011;4908;47.446;13.900;2023-06-26T03:50:42;6.17;;;5.77;;
9737;SDS011;4908;47.446;13.900;2023-06-26T03:53:09;5.50;;;5.10;;
9737;SDS011;4908;47.446;13.900;2023-06-26T03:55:36;6.83;;;6.33;;
9737;SDS011;4908;47.446;13.900;2023-06-26T03:58:03;6.33;;;5.73;;
9737;SDS011;4908;47.446;13.900;2023-06-26T04:00:31;6.13;;;5.63;;
9737;SDS011;4908;47.446;13.900;2023-06-26T04:02:58;6.20;;;5.70;;
9737;SDS011;4908;47.446;13.900;2023-06-26T04:05:25;6.43;;;5.60;;
9737;SDS011;4908;47.446;13.900;2023-06-26T04:07:52;6.13;;;5.63;;
9737;SDS011;4908;47.446;13.900;2023-06-26T04:10:19;6.67;;;6.07;;
9737;SDS011;4908;47.446;13.900;2023-06-26T04:12:46;5.87;;;5.37;;
9737;SDS011;4908;47.446;13.900;2023-06-26T04:15:13;5.93;;;5.53;;
9737;SDS011;4908;47.446;13.900;2023-06-26T04:17:41;6.47;;;5.83;;
9737;SDS011;4908;47.446;13.900;2023-06-26T04:20:08;7.37;;;6.10;;
9737;SDS011;4908;47.446;13.900;2023-06-26T04:22:35;6.10;;;5.60;;
9737;SDS011;4908;47.446;13.900;2023-06-26T04:25:02;6.70;;;6.10;;
9737;SDS011;4908;47.446;13.900;2023-06-26T04:27:29;8.13;;;6.23;;
9737;SDS011;4908;47.446;13.900;2023-06-26T04:29:56;7.23;;;6.63;;
9737;SDS011;4908;47.446;13.900;2023-06-26T04:32:23;6.30;;;5.80;;
9737;SDS011;4908;47.446;13.900;2023-06-26T04:34:51;6.57;;;5.87;;
9737;SDS011;4908;47.446;13.900;2023-06-26T04:37:18;6.83;;;6.33;;
9737;SDS011;4908;47.446;13.900;2023-06-26T04:39:45;6.93;;;6.17;;
9737;SDS011;4908;47.446;13.900;2023-06-26T04:42:12;6.40;;;5.90;;
9737;SDS011;4908;47.446;13.900;2023-06-26T04:44:38;7.00;;;6.40;;
9737;SDS011;4908;47.446;13.900;2023-06-26T04:47:06;5.93;;;5.30;;
9737;SDS011;4908;47.446;13.900;2023-06-26T04:49:33;8.57;;;6.77;;
9737;SDS011;4908;47.446;13.900;2023-06-26T04:52:01;6.27;;;5.77;;
9737;SDS011;4908;47.446;13.900;2023-06-26T04:54:28;7.20;;;6.60;;
9737;SDS011;4908;47.446;13.900;2023-06-26T04:56:54;6.60;;;6.07;;
9737;SDS011;4908;47.446;13.900;2023-06-26T04:59:21;6.83;;;6.23;;
9737;SDS011;4908;47.446;13.900;2023-06-26T05:01:48;6.63;;;6.03;;
9737;SDS011;4908;47.446;13.900;2023-06-26T05:04:15;7.10;;;6.43;;
9737;SDS011;4908;47.446;13.900;2023-06-26T05:06:42;7.93;;;6.60;;
9737;SDS011;4908;47.446;13.900;2023-06-26T05:09:11;6.30;;;5.80;;
9737;SDS011;4908;47.446;13.900;2023-06-26T05:11:37;7.13;;;6.47;;
9737;SDS011;4908;47.446;13.900;2023-06-26T05:14:04;8.13;;;6.20;;
9737;SDS011;4908;47.446;13.900;2023-06-26T05:16:32;6.90;;;6.27;;
9737;SDS011;4908;47.446;13.900;2023-06-26T05:19:00;8.87;;;6.93;;
9737;SDS011;4908;47.446;13.900;2023-06-26T05:21:27;7.30;;;6.37;;
9737;SDS011;4908;47.446;13.900;2023-06-26T05:23:55;6.90;;;6.27;;
9737;SDS011;4908;47.446;13.900;2023-06-26T05:26:25;7.30;;;6.80;;
9737;SDS011;4908;47.446;13.900;2023-06-26T05:28:52;7.80;;;7.00;;
9737;SDS011;4908;47.446;13.900;2023-06-26T05:31:20;8.07;;;6.70;;
9737;SDS011;4908;47.446;13.900;2023-06-26T05:33:47;8.97;;;6.87;;
9737;SDS011;4908;47.446;13.900;2023-06-26T05:36:15;7.00;;;6.33;;
9737;SDS011;4908;47.446;13.900;2023-06-26T05:38:43;10.33;;;6.10;;
9737;SDS011;4908;47.446;13.900;2023-06-26T05:41:10;6.40;;;5.80;;
9737;SDS011;4908;47.446;13.900;2023-06-26T05:43:38;7.17;;;6.50;;
9737;SDS011;4908;47.446;13.900;2023-06-26T05:46:06;7.00;;;6.40;;
9737;SDS011;4908;47.446;13.900;2023-06-26T05:48:33;12.20;;;7.03;;
9737;SDS011;4908;47.446;13.900;2023-06-26T05:51:00;6.73;;;6.13;;
9737;SDS011;4908;47.446;13.900;2023-06-26T05:53:29;7.23;;;6.43;;
9737;SDS011;4908;47.446;13.900;2023-06-26T05:55:56;7.03;;;6.20;;
9737;SDS011;4908;47.446;13.900;2023-06-26T05:58:24;7.13;;;6.43;;
9737;SDS011;4908;47.446;13.900;2023-06-26T06:00:54;7.40;;;6.30;;
9737;SDS011;4908;47.446;13.900;2023-06-26T06:03:21;9.53;;;7.20;;
9737;SDS011;4908;47.446;13.900;2023-06-26T06:05:48;8.30;;;6.30;;
9737;SDS011;4908;47.446;13.900;2023-06-26T06:08:15;7.70;;;6.50;;
9737;SDS011;4908;47.446;13.900;2023-06-26T06:10:41;6.70;;;6.20;;
9737;SDS011;4908;47.446;13.900;2023-06-26T06:13:08;10.40;;;6.17;;
9737;SDS011;4908;47.446;13.900;2023-06-26T06:15:35;7.67;;;6.30;;
9737;SDS011;4908;47.446;13.900;2023-06-26T06:18:03;8.57;;;6.43;;
9737;SDS011;4908;47.446;13.900;2023-06-26T06:20:30;6.93;;;6.37;;
9737;SDS011;4908;47.446;13.900;2023-06-26T06:22:56;7.77;;;6.33;;
9737;SDS011;4908;47.446;13.900;2023-06-26T06:25:23;6.93;;;6.40;;
9737;SDS011;4908;47.446;13.900;2023-06-26T06:27:50;6.43;;;5.90;;
9737;SDS011;4908;47.446;13.900;2023-06-26T06:30:17;6.53;;;5.93;;
9737;SDS011;4908;47.446;13.900;2023-06-26T06:32:43;6.93;;;6.37;;
9737;SDS011;4908;47.446;13.900;2023-06-26T06:35:12;6.60;;;6.10;;
9737;SDS011;4908;47.446;13.900;2023-06-26T06:37:39;7.33;;;5.80;;
9737;SDS011;4908;47.446;13.900;2023-06-26T06:40:06;6.40;;;5.90;;
9737;SDS011;4908;47.446;13.900;2023-06-26T06:42:33;6.77;;;6.17;;
9737;SDS011;4908;47.446;13.900;2023-06-26T06:45:01;6.07;;;5.63;;
9737;SDS011;4908;47.446;13.900;2023-06-26T06:47:28;6.00;;;5.60;;
9737;SDS011;4908;47.446;13.900;2023-06-26T06:49:55;6.57;;;6.07;;
9737;SDS011;4908;47.446;13.900;2023-06-26T06:52:23;6.63;;;6.10;;
9737;SDS011;4908;47.446;13.900;2023-06-26T06:54:50;6.40;;;5.80;;
9737;SDS011;4908;47.446;13.900;2023-06-26T06:57:19;7.10;;;6.17;;
9737;SDS011;4908;47.446;13.900;2023-06-26T06:59:46;6.27;;;5.77;;
9737;SDS011;4908;47.446;13.900;2023-06-26T07:02:13;7.70;;;6.57;;
9737;SDS011;4908;47.446;13.900;2023-06-26T07:04:40;6.50;;;6.03;;
9737;SDS011;4908;47.446;13.900;2023-06-26T07:07:07;7.03;;;6.37;;
9737;SDS011;4908;47.446;13.900;2023-06-26T07:09:36;6.50;;;6.00;;
9737;SDS011;4908;47.446;13.900;2023-06-26T07:12:03;6.60;;;6.10;;
9737;SDS011;4908;47.446;13.900;2023-06-26T07:14:30;6.67;;;6.17;;
9737;SDS011;4908;47.446;13.900;2023-06-26T07:16:57;6.23;;;5.73;;
9737;SDS011;4908;47.446;13.900;2023-06-26T07:19:23;7.00;;;6.40;;
9737;SDS011;4908;47.446;13.900;2023-06-26T07:21:50;6.90;;;6.30;;
9737;SDS011;4908;47.446;13.900;2023-06-26T07:24:17;6.87;;;6.33;;
9737;SDS011;4908;47.446;13.900;2023-06-26T07:26:45;6.93;;;6.23;;
9737;SDS011;4908;47.446;13.900;2023-06-26T07:29:12;6.40;;;5.90;;
9737;SDS011;4908;47.446;13.900;2023-06-26T07:31:38;7.03;;;6.43;;
9737;SDS011;4908;47.446;13.900;2023-06-26T07:34:05;6.33;;;5.83;;
9737;SDS011;4908;47.446;13.900;2023-06-26T07:36:32;6.20;;;5.70;;
9737;SDS011;4908;47.446;13.900;2023-06-26T07:38:59;6.83;;;5.70;;
9737;SDS011;4908;47.446;13.900;2023-06-26T07:41:25;6.87;;;6.23;;
9737;SDS011;4908;47.446;13.900;2023-06-26T07:43:56;7.27;;;6.60;;
9737;SDS011;4908;47.446;13.900;2023-06-26T07:46:23;6.50;;;6.00;;
9737;SDS011;4908;47.446;13.900;2023-06-26T07:48:50;6.23;;;5.83;;
9737;SDS011;4908;47.446;13.900;2023-06-26T07:51:17;6.77;;;6.17;;
9737;SDS011;4908;47.446;13.900;2023-06-26T07:53:43;6.23;;;5.80;;
9737;SDS011;4908;47.446;13.900;2023-06-26T07:56:10;6.53;;;6.03;;
9737;SDS011;4908;47.446;13.900;2023-06-26T07:58:37;6.67;;;6.07;;
9737;SDS011;4908;47.446;13.900;2023-06-26T08:01:05;6.70;;;6.17;;
9737;SDS011;4908;47.446;13.900;2023-06-26T08:03:32;5.80;;;5.37;;
9737;SDS011;4908;47.446;13.900;2023-06-26T08:05:58;5.93;;;5.40;;
9737;SDS011;4908;47.446;13.900;2023-06-26T08:08:25;6.07;;;5.67;;
9737;SDS011;4908;47.446;13.900;2023-06-26T08:10:52;6.03;;;5.53;;
9737;SDS011;4908;47.446;13.900;2023-06-26T08:13:19;5.90;;;5.50;;
9737;SDS011;4908;47.446;13.900;2023-06-26T08:15:46;6.10;;;5.60;;
9737;SDS011;4908;47.446;13.900;2023-06-26T08:18:14;6.03;;;5.63;;
9737;SDS011;4908;47.446;13.900;2023-06-26T08:20:41;6.13;;;5.63;;
9737;SDS011;4908;47.446;13.900;2023-06-26T08:23:08;5.67;;;5.27;;
9737;SDS011;4908;47.446;13.900;2023-06-26T08:25:35;6.53;;;5.97;;
9737;SDS011;4908;47.446;13.900;2023-06-26T08:28:01;5.83;;;5.30;;
9737;SDS011;4908;47.446;13.900;2023-06-26T08:30:28;6.43;;;5.63;;
9737;SDS011;4908;47.446;13.900;2023-06-26T08:32:55;6.40;;;6.00;;
9737;SDS011;4908;47.446;13.900;2023-06-26T08:35:23;6.10;;;5.70;;
9737;SDS011;4908;47.446;13.900;2023-06-26T08:37:50;5.67;;;5.27;;
9737;SDS011;4908;47.446;13.900;2023-06-26T08:40:17;6.40;;;5.80;;
9737;SDS011;4908;47.446;13.900;2023-06-26T08:42:44;5.20;;;4.80;;
9737;SDS011;4908;47.446;13.900;2023-06-26T08:45:11;6.00;;;5.50;;
9737;SDS011;4908;47.446;13.900;2023-06-26T08:47:38;6.00;;;5.50;;
9737;SDS011;4908;47.446;13.900;2023-06-26T08:50:08;5.83;;;5.37;;
9737;SDS011;4908;47.446;13.900;2023-06-26T08:52:43;5.70;;;5.30;;
9737;SDS011;4908;47.446;13.900;2023-06-26T08:55:12;6.23;;;5.83;;
9737;SDS011;4908;47.446;13.900;2023-06-26T08:57:42;5.60;;;5.20;;
9737;SDS011;4908;47.446;13.900;2023-06-26T09:00:09;6.17;;;5.67;;
9737;SDS011;4908;47.446;13.900;2023-06-26T09:02:40;6.33;;;5.83;;
9737;SDS011;4908;47.446;13.900;2023-06-26T09:05:07;5.93;;;5.53;;
9737;SDS011;4908;47.446;13.900;2023-06-26T09:07:34;5.80;;;5.40;;
9737;SDS011;4908;47.446;13.900;2023-06-26T09:10:02;6.87;;;5.73;;
9737;SDS011;4908;47.446;13.900;2023-06-26T09:12:30;6.23;;;5.57;;
9737;SDS011;4908;47.446;13.900;2023-06-26T09:14:57;5.73;;;5.23;;
9737;SDS011;4908;47.446;13.900;2023-06-26T09:17:24;5.63;;;5.23;;
9737;SDS011;4908;47.446;13.900;2023-06-26T09:19:52;5.33;;;5.03;;
9737;SDS011;4908;47.446;13.900;2023-06-26T09:22:19;5.20;;;4.80;;
9737;SDS011;4908;47.446;13.900;2023-06-26T09:24:46;6.07;;;5.67;;
9737;SDS011;4908;47.446;13.900;2023-06-26T09:27:15;5.10;;;4.60;;
9737;SDS011;4908;47.446;13.900;2023-06-26T09:29:42;5.20;;;4.90;;
9737;SDS011;4908;47.446;13.900;2023-06-26T09:32:12;5.20;;;4.80;;
9737;SDS011;4908;47.446;13.900;2023-06-26T09:34:40;5.83;;;5.33;;
9737;SDS011;4908;47.446;13.900;2023-06-26T09:37:08;5.80;;;5.20;;
9737;SDS011;4908;47.446;13.900;2023-06-26T09:39:35;4.90;;;4.60;;
9737;SDS011;4908;47.446;13.900;2023-06-26T09:42:02;4.97;;;4.57;;
9737;SDS011;4908;47.446;13.900;2023-06-26T09:44:33;5.30;;;4.90;;
9737;SDS011;4908;47.446;13.900;2023-06-26T09:47:01;8.80;;;5.13;;
9737;SDS011;4908;47.446;13.900;2023-06-26T09:49:28;15.20;;;5.80;;
9737;SDS011;4908;47.446;13.900;2023-06-26T09:51:55;5.13;;;4.60;;
9737;SDS011;4908;47.446;13.900;2023-06-26T09:54:21;5.13;;;4.83;;
9737;SDS011;4908;47.446;13.900;2023-06-26T09:56:50;5.20;;;4.87;;
9737;SDS011;4908;47.446;13.900;2023-06-26T09:59:17;5.37;;;5.07;;
9737;SDS011;4908;47.446;13.900;2023-06-26T10:01:46;5.10;;;4.67;;
9737;SDS011;4908;47.446;13.900;2023-06-26T10:04:13;5.07;;;4.77;;
9737;SDS011;4908;47.446;13.900;2023-06-26T10:06:41;4.73;;;4.43;;
9737;SDS011;4908;47.446;13.900;2023-06-26T10:09:12;5.07;;;4.77;;
9737;SDS011;4908;47.446;13.900;2023-06-26T10:11:41;4.80;;;4.50;;
9737;SDS011;4908;47.446;13.900;2023-06-26T10:14:15;5.43;;;5.07;;
9737;SDS011;4908;47.446;13.900;2023-06-26T10:16:43;5.40;;;5.00;;
9737;SDS011;4908;47.446;13.900;2023-06-26T10:19:14;5.03;;;4.73;;
9737;SDS011;4908;47.446;13.900;2023-06-26T10:21:49;4.43;;;4.13;;
9737;SDS011;4908;47.446;13.900;2023-06-26T10:24:17;5.23;;;4.83;;
9737;SDS011;4908;47.446;13.900;2023-06-26T10:26:47;4.90;;;4.57;;
9737;SDS011;4908;47.446;13.900;2023-06-26T10:29:16;5.10;;;4.80;;
9737;SDS011;4908;47.446;13.900;2023-06-26T10:31:48;5.10;;;4.70;;
9737;SDS011;4908;47.446;13.900;2023-06-26T10:34:18;4.90;;;4.60;;
9737;SDS011;4908;47.446;13.900;2023-06-26T10:36:45;4.60;;;4.27;;
9737;SDS011;4908;47.446;13.900;2023-06-26T10:39:12;4.90;;;4.60;;
9737;SDS011;4908;47.446;13.900;2023-06-26T10:41:39;5.60;;;5.10;;
9737;SDS011;4908;47.446;13.900;2023-06-26T10:44:08;4.53;;;4.20;;
9737;SDS011;4908;47.446;13.900;2023-06-26T10:46:51;5.03;;;4.63;;
9737;SDS011;4908;47.446;13.900;2023-06-26T10:49:18;5.10;;;4.70;;
9737;SDS011;4908;47.446;13.900;2023-06-26T10:51:46;4.93;;;4.47;;
9737;SDS011;4908;47.446;13.900;2023-06-26T10:54:14;4.83;;;4.53;;
9737;SDS011;4908;47.446;13.900;2023-06-26T10:56:42;5.33;;;4.93;;
9737;SDS011;4908;47.446;13.900;2023-06-26T10:59:14;4.93;;;4.63;;
9737;SDS011;4908;47.446;13.900;2023-06-26T11:01:42;4.77;;;4.47;;
9737;SDS011;4908;47.446;13.900;2023-06-26T11:04:13;4.50;;;4.20;;
9737;SDS011;4908;47.446;13.900;2023-06-26T11:06:41;5.20;;;4.80;;
9737;SDS011;4908;47.446;13.900;2023-06-26T11:09:13;4.67;;;4.37;;
9737;SDS011;4908;47.446;13.900;2023-06-26T11:11:57;4.70;;;4.30;;
9737;SDS011;4908;47.446;13.900;2023-06-26T11:14:29;4.80;;;4.50;;
9737;SDS011;4908;47.446;13.900;2023-06-26T11:16:57;4.93;;;4.60;;
9737;SDS011;4908;47.446;13.900;2023-06-26T11:19:26;4.60;;;4.30;;
9737;SDS011;4908;47.446;13.900;2023-06-26T11:21:58;5.43;;;4.93;;
9737;SDS011;4908;47.446;13.900;2023-06-26T11:24:25;4.80;;;4.50;;
9737;SDS011;4908;47.446;13.900;2023-06-26T11:26:53;4.70;;;4.40;;
9737;SDS011;4908;47.446;13.900;2023-06-26T11:29:20;4.90;;;4.50;;
9737;SDS011;4908;47.446;13.900;2023-06-26T11:31:48;5.07;;;4.77;;
9737;SDS011;4908;47.446;13.900;2023-06-26T11:34:29;5.30;;;5.00;;
9737;SDS011;4908;47.446;13.900;2023-06-26T11:36:56;5.10;;;4.80;;
9737;SDS011;4908;47.446;13.900;2023-06-26T11:39:23;4.93;;;4.63;;
9737;SDS011;4908;47.446;13.900;2023-06-26T11:41:51;5.30;;;5.00;;
9737;SDS011;4908;47.446;13.900;2023-06-26T11:44:18;5.53;;;5.03;;
9737;SDS011;4908;47.446;13.900;2023-06-26T11:46:45;5.00;;;4.70;;
9737;SDS011;4908;47.446;13.900;2023-06-26T11:49:14;5.50;;;5.10;;
9737;SDS011;4908;47.446;13.900;2023-06-26T11:51:44;4.80;;;4.40;;
9737;SDS011;4908;47.446;13.900;2023-06-26T11:54:13;5.10;;;4.57;;
9737;SDS011;4908;47.446;13.900;2023-06-26T11:56:39;4.20;;;4.00;;
9737;SDS011;4908;47.446;13.900;2023-06-26T11:59:07;4.90;;;4.60;;
9737;SDS011;4908;47.446;13.900;2023-06-26T12:01:39;4.47;;;4.20;;
9737;SDS011;4908;47.446;13.900;2023-06-26T12:04:10;4.53;;;4.33;;
9737;SDS011;4908;47.446;13.900;2023-06-26T12:06:38;5.13;;;4.77;;
9737;SDS011;4908;47.446;13.900;2023-06-26T12:09:08;4.80;;;4.50;;
9737;SDS011;4908;47.446;13.900;2023-06-26T12:11:37;5.13;;;4.73;;
9737;SDS011;4908;47.446;13.900;2023-06-26T12:14:05;4.10;;;3.90;;
9737;SDS011;4908;47.446;13.900;2023-06-26T12:16:32;5.13;;;4.83;;
9737;SDS011;4908;47.446;13.900;2023-06-26T12:19:01;4.77;;;4.47;;
9737;SDS011;4908;47.446;13.900;2023-06-26T12:21:45;5.10;;;4.80;;
9737;SDS011;4908;47.446;13.900;2023-06-26T12:24:19;5.33;;;4.97;;
9737;SDS011;4908;47.446;13.900;2023-06-26T12:26:50;4.57;;;4.37;;
9737;SDS011;4908;47.446;13.900;2023-06-26T12:29:19;4.63;;;4.33;;
9737;SDS011;4908;47.446;13.900;2023-06-26T12:31:48;4.93;;;4.53;;
9737;SDS011;4908;47.446;13.900;2023-06-26T12:34:17;4.28;;;4.03;;
9737;SDS011;4908;47.446;13.900;2023-06-26T12:36:45;4.70;;;4.40;;
9737;SDS011;4908;47.446;13.900;2023-06-26T12:39:15;4.47;;;4.28;;
9737;SDS011;4908;47.446;13.900;2023-06-26T12:41:47;4.78;;;4.38;;
9737;SDS011;4908;47.446;13.900;2023-06-26T12:44:18;4.90;;;4.60;;
9737;SDS011;4908;47.446;13.900;2023-06-26T12:46:48;4.65;;;4.25;;
9737;SDS011;4908;47.446;13.900;2023-06-26T12:49:19;4.72;;;4.43;;
9737;SDS011;4908;47.446;13.900;2023-06-26T12:51:46;4.10;;;3.90;;
9737;SDS011;4908;47.446;13.900;2023-06-26T12:54:13;4.07;;;3.88;;
9737;SDS011;4908;47.446;13.900;2023-06-26T12:56:40;4.38;;;4.07;;
9737;SDS011;4908;47.446;13.900;2023-06-26T12:59:08;4.07;;;3.88;;
9737;SDS011;4908;47.446;13.900;2023-06-26T13:01:35;4.88;;;4.57;;
9737;SDS011;4908;47.446;13.900;2023-06-26T13:04:02;4.40;;;4.10;;
9737;SDS011;4908;47.446;13.900;2023-06-26T13:06:29;4.78;;;4.25;;
9737;SDS011;4908;47.446;13.900;2023-06-26T13:08:57;4.30;;;4.00;;
9737;SDS011;4908;47.446;13.900;2023-06-26T13:11:24;4.72;;;4.43;;
9737;SDS011;4908;47.446;13.900;2023-06-26T13:13:51;3.92;;;3.70;;
9737;SDS011;4908;47.446;13.900;2023-06-26T13:16:19;3.83;;;3.67;;
9737;SDS011;4908;47.446;13.900;2023-06-26T13:18:46;4.38;;;4.18;;
9737;SDS011;4908;47.446;13.900;2023-06-26T13:21:13;4.18;;;3.97;;
9737;SDS011;4908;47.446;13.900;2023-06-26T13:23:40;4.22;;;3.90;;
9737;SDS011;4908;47.446;13.900;2023-06-26T13:26:06;4.75;;;4.30;;
9737;SDS011;4908;47.446;13.900;2023-06-26T13:28:33;4.38;;;3.97;;
9737;SDS011;4908;47.446;13.900;2023-06-26T13:31:00;4.68;;;4.40;;
9737;SDS011;4908;47.446;13.900;2023-06-26T13:33:28;4.63;;;4.32;;
9737;SDS011;4908;47.446;13.900;2023-06-26T13:35:55;4.07;;;3.88;;
9737;SDS011;4908;47.446;13.900;2023-06-26T13:38:23;4.97;;;4.20;;
9737;SDS011;4908;47.446;13.900;2023-06-26T13:40:51;3.78;;;3.58;;
9737;SDS011;4908;47.446;13.900;2023-06-26T13:43:19;4.00;;;3.80;;
9737;SDS011;4908;47.446;13.900;2023-06-26T13:45:47;4.20;;;4.00;;
9737;SDS011;4908;47.446;13.900;2023-06-26T13:48:14;4.07;;;3.85;;
9737;SDS011;4908;47.446;13.900;2023-06-26T13:50:42;3.90;;;3.60;;
9737;SDS011;4908;47.446;13.900;2023-06-26T13:53:09;4.13;;;3.92;;
9737;SDS011;4908;47.446;13.900;2023-06-26T13:55:36;4.00;;;3.80;;
9737;SDS011;4908;47.446;13.900;2023-06-26T13:58:03;4.03;;;3.78;;
9737;SDS011;4908;47.446;13.900;2023-06-26T14:00:30;4.38;;;4.07;;
9737;SDS011;4908;47.446;13.900;2023-06-26T14:02:58;4.25;;;3.90;;
9737;SDS011;4908;47.446;13.900;2023-06-26T14:05:25;3.75;;;3.55;;
9737;SDS011;4908;47.446;13.900;2023-06-26T14:07:53;4.20;;;3.47;;
9737;SDS011;4908;47.446;13.900;2023-06-26T14:10:20;3.90;;;3.70;;
9737;SDS011;4908;47.446;13.900;2023-06-26T14:12:47;4.07;;;3.88;;
9737;SDS011;4908;47.446;13.900;2023-06-26T14:15:14;3.95;;;3.65;;
9737;SDS011;4908;47.446;13.900;2023-06-26T14:17:41;3.83;;;3.60;;
9737;SDS011;4908;47.446;13.900;2023-06-26T14:20:08;3.38;;;3.28;;
9737;SDS011;4908;47.446;13.900;2023-06-26T14:22:38;3.70;;;3.47;;
9737;SDS011;4908;47.446;13.900;2023-06-26T14:25:07;5.15;;;3.92;;
9737;SDS011;4908;47.446;13.900;2023-06-26T14:27:34;3.92;;;3.53;;
9737;SDS011;4908;47.446;13.900;2023-06-26T14:30:01;4.00;;;3.57;;
9737;SDS011;4908;47.446;13.900;2023-06-26T14:32:27;3.65;;;3.35;;
9737;SDS011;4908;47.446;13.900;2023-06-26T14:34:54;3.72;;;3.53;;
9737;SDS011;4908;47.446;13.900;2023-06-26T14:37:21;3.78;;;3.58;;
9737;SDS011;4908;47.446;13.900;2023-06-26T14:39:49;3.75;;;3.55;;
9737;SDS011;4908;47.446;13.900;2023-06-26T14:42:17;3.92;;;3.63;;
9737;SDS011;4908;47.446;13.900;2023-06-26T14:44:44;3.63;;;3.33;;
9737;SDS011;4908;47.446;13.900;2023-06-26T14:47:12;3.58;;;3.38;;
9737;SDS011;4908;47.446;13.900;2023-06-26T14:49:39;4.30;;;4.00;;
9737;SDS011;4908;47.446;13.900;2023-06-26T14:52:06;3.70;;;3.50;;
9737;SDS011;4908;47.446;13.900;2023-06-26T14:54:33;4.15;;;3.72;;
9737;SDS011;4908;47.446;13.900;2023-06-26T14:57:01;4.00;;;3.65;;
9737;SDS011;4908;47.446;13.900;2023-06-26T14:59:29;5.45;;;3.90;;
9737;SDS011;4908;47.446;13.900;2023-06-26T15:01:56;3.75;;;3.45;;
9737;SDS011;4908;47.446;13.900;2023-06-26T15:04:23;3.80;;;3.60;;